sensor_id;sensor_type;location;lat;lon;timestamp;P1;durP1;ratioP1;P2;durP2;ratioP2
70576;SDS011;58138;43.138;24.702;2022-12-10T00:00:34;123.22;;;77.82;;
70576;SDS011;58138;43.138;24.702;2022-12-10T00:03:00;115.22;;;75.95;;
70576;SDS011;58138;43.138;24.702;2022-12-10T00:05:26;113.10;;;75.22;;
70576;SDS011;58138;43.138;24.702;2022-12-10T00:07:51;93.60;;;58.40;;
70576;SDS011;58138;43.138;24.702;2022-12-10T00:10:17;105.43;;;64.13;;
70576;SDS011;58138;43.138;24.702;2022-12-10T00:12:42;78.78;;;48.83;;
70576;SDS011;58138;43.138;24.702;2022-12-10T00:15:08;97.85;;;62.25;;
70576;SDS011;58138;43.138;24.702;2022-12-10T00:17:33;105.63;;;70.32;;
70576;SDS011;58138;43.138;24.702;2022-12-10T00:19:59;107.70;;;68.20;;
70576;SDS011;58138;43.138;24.702;2022-12-10T00:22:24;98.43;;;64.57;;
70576;SDS011;58138;43.138;24.702;2022-12-10T00:24:50;108.60;;;72.05;;
70576;SDS011;58138;43.138;24.702;2022-12-10T00:27:15;110.93;;;72.03;;
70576;SDS011;58138;43.138;24.702;2022-12-10T00:29:41;110.97;;;68.97;;
70576;SDS011;58138;43.138;24.702;2022-12-10T00:32:07;97.60;;;65.63;;
70576;SDS011;58138;43.138;24.702;2022-12-10T00:34:32;109.70;;;69.75;;
70576;SDS011;58138;43.138;24.702;2022-12-10T00:36:57;122.55;;;81.53;;
70576;SDS011;58138;43.138;24.702;2022-12-10T00:39:23;111.05;;;71.93;;
70576;SDS011;58138;43.138;24.702;2022-12-10T00:41:48;100.68;;;63.80;;
70576;SDS011;58138;43.138;24.702;2022-12-10T00:44:14;124.50;;;82.18;;
70576;SDS011;58138;43.138;24.702;2022-12-10T00:46:40;111.75;;;68.00;;
70576;SDS011;58138;43.138;24.702;2022-12-10T00:49:06;75.35;;;46.53;;
70576;SDS011;58138;43.138;24.702;2022-12-10T00:51:31;78.90;;;51.83;;
70576;SDS011;58138;43.138;24.702;2022-12-10T00:53:57;113.75;;;73.47;;
70576;SDS011;58138;43.138;24.702;2022-12-10T00:56:25;100.10;;;66.07;;
70576;SDS011;58138;43.138;24.702;2022-12-10T00:58:54;94.75;;;61.03;;
70576;SDS011;58138;43.138;24.702;2022-12-10T01:03:51;74.43;;;50.67;;
70576;SDS011;58138;43.138;24.702;2022-12-10T01:06:23;87.55;;;55.33;;
70576;SDS011;58138;43.138;24.702;2022-12-10T01:08:50;88.05;;;52.90;;
70576;SDS011;58138;43.138;24.702;2022-12-10T01:11:17;85.10;;;52.33;;
70576;SDS011;58138;43.138;24.702;2022-12-10T01:13:46;74.93;;;49.08;;
70576;SDS011;58138;43.138;24.702;2022-12-10T01:16:13;73.03;;;44.55;;
70576;SDS011;58138;43.138;24.702;2022-12-10T01:18:39;77.95;;;46.88;;
70576;SDS011;58138;43.138;24.702;2022-12-10T01:21:09;67.82;;;41.33;;
70576;SDS011;58138;43.138;24.702;2022-12-10T01:23:37;65.00;;;38.47;;
70576;SDS011;58138;43.138;24.702;2022-12-10T01:26:05;76.13;;;46.88;;
70576;SDS011;58138;43.138;24.702;2022-12-10T01:28:33;100.30;;;62.22;;
70576;SDS011;58138;43.138;24.702;2022-12-10T01:31:05;108.90;;;67.40;;
70576;SDS011;58138;43.138;24.702;2022-12-10T01:33:32;116.63;;;76.22;;
70576;SDS011;58138;43.138;24.702;2022-12-10T01:36:02;90.30;;;54.30;;
70576;SDS011;58138;43.138;24.702;2022-12-10T01:38:32;87.07;;;51.83;;
70576;SDS011;58138;43.138;24.702;2022-12-10T01:40:58;68.60;;;45.67;;
70576;SDS011;58138;43.138;24.702;2022-12-10T01:43:24;71.47;;;47.72;;
70576;SDS011;58138;43.138;24.702;2022-12-10T01:45:50;73.30;;;45.63;;
70576;SDS011;58138;43.138;24.702;2022-12-10T01:48:15;75.90;;;47.83;;
70576;SDS011;58138;43.138;24.702;2022-12-10T01:50:41;77.15;;;50.33;;
70576;SDS011;58138;43.138;24.702;2022-12-10T01:53:06;82.00;;;49.78;;
70576;SDS011;58138;43.138;24.702;2022-12-10T01:55:50;81.53;;;51.17;;
70576;SDS011;58138;43.138;24.702;2022-12-10T01:58:16;92.13;;;50.33;;
70576;SDS011;58138;43.138;24.702;2022-12-10T02:00:49;79.20;;;50.30;;
70576;SDS011;58138;43.138;24.702;2022-12-10T02:06:35;80.95;;;49.10;;
70576;SDS011;58138;43.138;24.702;2022-12-10T02:09:11;78.63;;;48.88;;
70576;SDS011;58138;43.138;24.702;2022-12-10T02:14:23;79.03;;;49.47;;
70576;SDS011;58138;43.138;24.702;2022-12-10T02:16:59;82.38;;;51.75;;
70576;SDS011;58138;43.138;24.702;2022-12-10T02:22:28;86.70;;;54.28;;
70576;SDS011;58138;43.138;24.702;2022-12-10T02:24:58;89.40;;;55.33;;
70576;SDS011;58138;43.138;24.702;2022-12-10T02:27:27;85.63;;;53.92;;
70576;SDS011;58138;43.138;24.702;2022-12-10T02:29:55;84.88;;;50.53;;
70576;SDS011;58138;43.138;24.702;2022-12-10T02:32:22;80.35;;;49.65;;
70576;SDS011;58138;43.138;24.702;2022-12-10T02:34:51;80.47;;;52.10;;
70576;SDS011;58138;43.138;24.702;2022-12-10T02:37:31;77.05;;;50.00;;
70576;SDS011;58138;43.138;24.702;2022-12-10T02:40:01;85.15;;;54.78;;
70576;SDS011;58138;43.138;24.702;2022-12-10T02:42:29;76.13;;;48.35;;
70576;SDS011;58138;43.138;24.702;2022-12-10T02:44:57;75.53;;;48.30;;
70576;SDS011;58138;43.138;24.702;2022-12-10T02:47:23;70.25;;;45.00;;
70576;SDS011;58138;43.138;24.702;2022-12-10T02:49:50;65.30;;;45.00;;
70576;SDS011;58138;43.138;24.702;2022-12-10T02:52:17;71.93;;;45.95;;
70576;SDS011;58138;43.138;24.702;2022-12-10T02:54:44;68.65;;;43.83;;
70576;SDS011;58138;43.138;24.702;2022-12-10T03:05:47;75.22;;;49.40;;
70576;SDS011;58138;43.138;24.702;2022-12-10T03:11:19;70.90;;;46.40;;
70576;SDS011;58138;43.138;24.702;2022-12-10T03:16:15;72.15;;;47.97;;
70576;SDS011;58138;43.138;24.702;2022-12-10T03:18:41;77.45;;;48.85;;
70576;SDS011;58138;43.138;24.702;2022-12-10T03:21:08;73.40;;;49.63;;
70576;SDS011;58138;43.138;24.702;2022-12-10T03:23:35;78.38;;;50.78;;
70576;SDS011;58138;43.138;24.702;2022-12-10T03:26:02;81.60;;;47.63;;
70576;SDS011;58138;43.138;24.702;2022-12-10T03:28:30;68.75;;;45.45;;
70576;SDS011;58138;43.138;24.702;2022-12-10T03:31:00;70.65;;;44.78;;
70576;SDS011;58138;43.138;24.702;2022-12-10T03:33:26;66.78;;;43.58;;
70576;SDS011;58138;43.138;24.702;2022-12-10T03:35:51;68.85;;;43.67;;
70576;SDS011;58138;43.138;24.702;2022-12-10T03:38:17;62.05;;;41.13;;
70576;SDS011;58138;43.138;24.702;2022-12-10T03:40:43;62.63;;;41.88;;
70576;SDS011;58138;43.138;24.702;2022-12-10T03:43:08;69.47;;;44.08;;
70576;SDS011;58138;43.138;24.702;2022-12-10T03:45:33;73.93;;;47.45;;
70576;SDS011;58138;43.138;24.702;2022-12-10T03:47:59;63.30;;;42.80;;
70576;SDS011;58138;43.138;24.702;2022-12-10T03:50:27;65.15;;;41.90;;
70576;SDS011;58138;43.138;24.702;2022-12-10T03:52:52;61.75;;;39.55;;
70576;SDS011;58138;43.138;24.702;2022-12-10T03:55:18;60.58;;;39.85;;
70576;SDS011;58138;43.138;24.702;2022-12-10T03:57:44;54.95;;;37.47;;
70576;SDS011;58138;43.138;24.702;2022-12-10T04:00:09;51.65;;;35.97;;
70576;SDS011;58138;43.138;24.702;2022-12-10T04:02:35;52.90;;;35.97;;
70576;SDS011;58138;43.138;24.702;2022-12-10T04:05:01;57.80;;;39.17;;
70576;SDS011;58138;43.138;24.702;2022-12-10T04:07:26;56.00;;;38.78;;
70576;SDS011;58138;43.138;24.702;2022-12-10T04:09:52;50.45;;;35.83;;
70576;SDS011;58138;43.138;24.702;2022-12-10T04:12:18;49.25;;;35.38;;
70576;SDS011;58138;43.138;24.702;2022-12-10T04:14:43;49.65;;;33.50;;
70576;SDS011;58138;43.138;24.702;2022-12-10T04:17:27;49.92;;;34.22;;
70576;SDS011;58138;43.138;24.702;2022-12-10T04:19:52;56.08;;;37.67;;
70576;SDS011;58138;43.138;24.702;2022-12-10T04:22:18;53.95;;;38.13;;
70576;SDS011;58138;43.138;24.702;2022-12-10T04:25:02;50.53;;;35.78;;
70576;SDS011;58138;43.138;24.702;2022-12-10T04:27:51;53.05;;;35.97;;
70576;SDS011;58138;43.138;24.702;2022-12-10T04:30:16;48.42;;;34.70;;
70576;SDS011;58138;43.138;24.702;2022-12-10T04:32:42;53.30;;;39.28;;
70576;SDS011;58138;43.138;24.702;2022-12-10T04:35:07;54.65;;;36.90;;
70576;SDS011;58138;43.138;24.702;2022-12-10T04:37:33;56.08;;;38.33;;
70576;SDS011;58138;43.138;24.702;2022-12-10T04:39:59;59.90;;;40.05;;
70576;SDS011;58138;43.138;24.702;2022-12-10T04:42:24;61.95;;;41.72;;
70576;SDS011;58138;43.138;24.702;2022-12-10T04:44:50;81.05;;;58.83;;
70576;SDS011;58138;43.138;24.702;2022-12-10T04:47:16;74.28;;;51.55;;
70576;SDS011;58138;43.138;24.702;2022-12-10T04:49:41;78.97;;;57.75;;
70576;SDS011;58138;43.138;24.702;2022-12-10T04:52:07;84.57;;;60.88;;
70576;SDS011;58138;43.138;24.702;2022-12-10T04:54:35;80.95;;;56.67;;
70576;SDS011;58138;43.138;24.702;2022-12-10T04:57:00;80.88;;;52.17;;
70576;SDS011;58138;43.138;24.702;2022-12-10T04:59:26;71.35;;;51.13;;
70576;SDS011;58138;43.138;24.702;2022-12-10T05:01:51;76.20;;;54.05;;
70576;SDS011;58138;43.138;24.702;2022-12-10T05:04:17;76.68;;;52.80;;
70576;SDS011;58138;43.138;24.702;2022-12-10T05:06:43;70.63;;;46.13;;
70576;SDS011;58138;43.138;24.702;2022-12-10T05:09:10;66.65;;;47.72;;
70576;SDS011;58138;43.138;24.702;2022-12-10T05:11:36;71.93;;;47.08;;
70576;SDS011;58138;43.138;24.702;2022-12-10T05:14:02;71.75;;;46.63;;
70576;SDS011;58138;43.138;24.702;2022-12-10T05:16:29;64.97;;;45.88;;
70576;SDS011;58138;43.138;24.702;2022-12-10T05:18:56;70.82;;;48.30;;
70576;SDS011;58138;43.138;24.702;2022-12-10T05:21:22;58.85;;;41.95;;
70576;SDS011;58138;43.138;24.702;2022-12-10T05:23:49;55.17;;;38.33;;
70576;SDS011;58138;43.138;24.702;2022-12-10T05:26:17;57.95;;;38.78;;
70576;SDS011;58138;43.138;24.702;2022-12-10T05:28:48;64.07;;;40.38;;
70576;SDS011;58138;43.138;24.702;2022-12-10T05:31:16;41.83;;;29.33;;
70576;SDS011;58138;43.138;24.702;2022-12-10T05:33:46;44.05;;;32.25;;
70576;SDS011;58138;43.138;24.702;2022-12-10T05:36:12;39.42;;;28.75;;
70576;SDS011;58138;43.138;24.702;2022-12-10T05:38:38;50.80;;;36.53;;
70576;SDS011;58138;43.138;24.702;2022-12-10T05:41:05;47.20;;;33.50;;
70576;SDS011;58138;43.138;24.702;2022-12-10T05:43:33;45.47;;;34.60;;
70576;SDS011;58138;43.138;24.702;2022-12-10T05:46:02;38.65;;;28.85;;
70576;SDS011;58138;43.138;24.702;2022-12-10T05:48:29;45.10;;;32.20;;
70576;SDS011;58138;43.138;24.702;2022-12-10T05:50:54;54.10;;;38.58;;
70576;SDS011;58138;43.138;24.702;2022-12-10T05:53:20;51.97;;;34.30;;
70576;SDS011;58138;43.138;24.702;2022-12-10T05:55:46;54.85;;;36.45;;
70576;SDS011;58138;43.138;24.702;2022-12-10T05:58:11;44.38;;;33.08;;
70576;SDS011;58138;43.138;24.702;2022-12-10T06:00:38;50.08;;;35.08;;
70576;SDS011;58138;43.138;24.702;2022-12-10T06:03:04;50.30;;;35.60;;
70576;SDS011;58138;43.138;24.702;2022-12-10T06:05:29;46.08;;;34.15;;
70576;SDS011;58138;43.138;24.702;2022-12-10T06:07:55;53.15;;;37.67;;
70576;SDS011;58138;43.138;24.702;2022-12-10T06:10:20;53.85;;;39.35;;
70576;SDS011;58138;43.138;24.702;2022-12-10T06:12:46;53.67;;;38.95;;
70576;SDS011;58138;43.138;24.702;2022-12-10T06:15:11;59.25;;;42.75;;
70576;SDS011;58138;43.138;24.702;2022-12-10T06:17:37;65.38;;;44.10;;
70576;SDS011;58138;43.138;24.702;2022-12-10T06:20:02;66.50;;;43.83;;
70576;SDS011;58138;43.138;24.702;2022-12-10T06:22:28;74.70;;;52.30;;
70576;SDS011;58138;43.138;24.702;2022-12-10T06:24:54;79.45;;;53.45;;
70576;SDS011;58138;43.138;24.702;2022-12-10T06:27:19;78.57;;;54.15;;
70576;SDS011;58138;43.138;24.702;2022-12-10T06:29:44;73.43;;;50.83;;
70576;SDS011;58138;43.138;24.702;2022-12-10T06:32:10;73.28;;;53.10;;
70576;SDS011;58138;43.138;24.702;2022-12-10T06:34:36;76.47;;;55.28;;
70576;SDS011;58138;43.138;24.702;2022-12-10T06:37:01;77.78;;;54.15;;
70576;SDS011;58138;43.138;24.702;2022-12-10T06:39:27;75.65;;;52.25;;
70576;SDS011;58138;43.138;24.702;2022-12-10T06:41:52;87.32;;;60.03;;
70576;SDS011;58138;43.138;24.702;2022-12-10T06:44:18;68.60;;;49.47;;
70576;SDS011;58138;43.138;24.702;2022-12-10T06:46:43;73.80;;;53.70;;
70576;SDS011;58138;43.138;24.702;2022-12-10T06:49:09;84.57;;;60.60;;
70576;SDS011;58138;43.138;24.702;2022-12-10T06:51:34;89.18;;;61.67;;
70576;SDS011;58138;43.138;24.702;2022-12-10T06:54:00;84.20;;;57.25;;
70576;SDS011;58138;43.138;24.702;2022-12-10T06:56:25;102.05;;;68.18;;
70576;SDS011;58138;43.138;24.702;2022-12-10T06:58:51;90.25;;;64.15;;
70576;SDS011;58138;43.138;24.702;2022-12-10T07:01:18;95.97;;;66.63;;
70576;SDS011;58138;43.138;24.702;2022-12-10T07:03:47;131.88;;;90.72;;
70576;SDS011;58138;43.138;24.702;2022-12-10T07:06:15;119.50;;;84.88;;
70576;SDS011;58138;43.138;24.702;2022-12-10T07:08:41;111.32;;;78.13;;
70576;SDS011;58138;43.138;24.702;2022-12-10T07:11:10;107.65;;;75.97;;
70576;SDS011;58138;43.138;24.702;2022-12-10T07:13:37;126.43;;;89.93;;
70576;SDS011;58138;43.138;24.702;2022-12-10T07:16:03;120.15;;;86.38;;
70576;SDS011;58138;43.138;24.702;2022-12-10T07:18:37;146.68;;;107.40;;
70576;SDS011;58138;43.138;24.702;2022-12-10T07:21:11;148.07;;;106.75;;
70576;SDS011;58138;43.138;24.702;2022-12-10T07:23:38;153.77;;;111.40;;
70576;SDS011;58138;43.138;24.702;2022-12-10T07:26:03;132.18;;;92.68;;
70576;SDS011;58138;43.138;24.702;2022-12-10T07:28:29;128.40;;;94.30;;
70576;SDS011;58138;43.138;24.702;2022-12-10T07:31:00;106.15;;;76.13;;
70576;SDS011;58138;43.138;24.702;2022-12-10T07:33:26;124.32;;;88.38;;
70576;SDS011;58138;43.138;24.702;2022-12-10T07:35:52;165.10;;;115.82;;
70576;SDS011;58138;43.138;24.702;2022-12-10T07:38:17;173.50;;;120.18;;
70576;SDS011;58138;43.138;24.702;2022-12-10T07:40:42;191.88;;;136.75;;
70576;SDS011;58138;43.138;24.702;2022-12-10T07:43:08;200.00;;;139.35;;
70576;SDS011;58138;43.138;24.702;2022-12-10T07:45:34;175.48;;;127.55;;
70576;SDS011;58138;43.138;24.702;2022-12-10T07:47:59;261.75;;;192.07;;
70576;SDS011;58138;43.138;24.702;2022-12-10T07:50:24;183.95;;;132.77;;
70576;SDS011;58138;43.138;24.702;2022-12-10T07:52:50;157.57;;;116.03;;
70576;SDS011;58138;43.138;24.702;2022-12-10T07:55:15;150.75;;;109.13;;
70576;SDS011;58138;43.138;24.702;2022-12-10T07:57:41;225.88;;;168.07;;
70576;SDS011;58138;43.138;24.702;2022-12-10T08:00:06;210.30;;;154.90;;
70576;SDS011;58138;43.138;24.702;2022-12-10T08:02:32;187.80;;;139.13;;
70576;SDS011;58138;43.138;24.702;2022-12-10T08:04:58;183.80;;;136.00;;
70576;SDS011;58138;43.138;24.702;2022-12-10T08:07:23;149.35;;;115.43;;
70576;SDS011;58138;43.138;24.702;2022-12-10T08:09:49;156.07;;;116.30;;
70576;SDS011;58138;43.138;24.702;2022-12-10T08:12:15;138.68;;;100.70;;
70576;SDS011;58138;43.138;24.702;2022-12-10T08:14:41;177.45;;;135.00;;
70576;SDS011;58138;43.138;24.702;2022-12-10T08:17:06;153.27;;;114.03;;
70576;SDS011;58138;43.138;24.702;2022-12-10T08:19:32;133.68;;;95.50;;
70576;SDS011;58138;43.138;24.702;2022-12-10T08:21:57;137.30;;;101.65;;
70576;SDS011;58138;43.138;24.702;2022-12-10T08:24:23;136.77;;;100.15;;
70576;SDS011;58138;43.138;24.702;2022-12-10T08:26:48;140.77;;;99.72;;
70576;SDS011;58138;43.138;24.702;2022-12-10T08:29:14;144.85;;;93.38;;
70576;SDS011;58138;43.138;24.702;2022-12-10T08:31:39;118.97;;;82.32;;
70576;SDS011;58138;43.138;24.702;2022-12-10T08:34:10;112.25;;;84.68;;
70576;SDS011;58138;43.138;24.702;2022-12-10T08:36:40;101.70;;;75.88;;
70576;SDS011;58138;43.138;24.702;2022-12-10T08:39:06;103.70;;;78.50;;
70576;SDS011;58138;43.138;24.702;2022-12-10T08:41:32;110.63;;;83.53;;
70576;SDS011;58138;43.138;24.702;2022-12-10T08:43:57;91.72;;;66.63;;
70576;SDS011;58138;43.138;24.702;2022-12-10T08:46:26;81.38;;;59.67;;
70576;SDS011;58138;43.138;24.702;2022-12-10T08:48:51;102.45;;;75.85;;
70576;SDS011;58138;43.138;24.702;2022-12-10T08:51:17;102.45;;;76.22;;
70576;SDS011;58138;43.138;24.702;2022-12-10T08:53:44;100.10;;;73.95;;
70576;SDS011;58138;43.138;24.702;2022-12-10T08:56:10;102.72;;;77.57;;
70576;SDS011;58138;43.138;24.702;2022-12-10T08:58:36;89.47;;;68.65;;
70576;SDS011;58138;43.138;24.702;2022-12-10T09:01:06;85.45;;;65.60;;
70576;SDS011;58138;43.138;24.702;2022-12-10T09:03:42;101.18;;;78.05;;
70576;SDS011;58138;43.138;24.702;2022-12-10T09:06:09;97.53;;;77.32;;
70576;SDS011;58138;43.138;24.702;2022-12-10T09:08:36;106.72;;;78.95;;
70576;SDS011;58138;43.138;24.702;2022-12-10T09:13:35;104.90;;;76.97;;
70576;SDS011;58138;43.138;24.702;2022-12-10T09:16:01;113.55;;;82.47;;
70576;SDS011;58138;43.138;24.702;2022-12-10T09:18:26;111.28;;;84.20;;
70576;SDS011;58138;43.138;24.702;2022-12-10T09:20:52;100.07;;;75.93;;
70576;SDS011;58138;43.138;24.702;2022-12-10T09:23:17;83.80;;;62.22;;
70576;SDS011;58138;43.138;24.702;2022-12-10T09:25:43;69.13;;;52.35;;
70576;SDS011;58138;43.138;24.702;2022-12-10T09:28:08;45.00;;;32.40;;
70576;SDS011;58138;43.138;24.702;2022-12-10T09:30:34;48.08;;;34.03;;
70576;SDS011;58138;43.138;24.702;2022-12-10T09:32:59;38.22;;;26.60;;
70576;SDS011;58138;43.138;24.702;2022-12-10T09:35:25;60.85;;;35.88;;
70576;SDS011;58138;43.138;24.702;2022-12-10T09:37:50;47.55;;;27.00;;
70576;SDS011;58138;43.138;24.702;2022-12-10T09:40:21;24.00;;;16.60;;
70576;SDS011;58138;43.138;24.702;2022-12-10T09:43:13;31.08;;;19.13;;
70576;SDS011;58138;43.138;24.702;2022-12-10T09:45:52;20.67;;;12.63;;
70576;SDS011;58138;43.138;24.702;2022-12-10T09:51:10;14.40;;;8.68;;
70576;SDS011;58138;43.138;24.702;2022-12-10T09:53:46;17.05;;;12.07;;
70576;SDS011;58138;43.138;24.702;2022-12-10T09:56:23;12.10;;;8.65;;
70576;SDS011;58138;43.138;24.702;2022-12-10T09:59:00;14.52;;;8.95;;
70576;SDS011;58138;43.138;24.702;2022-12-10T10:01:27;9.48;;;5.43;;
70576;SDS011;58138;43.138;24.702;2022-12-10T10:03:55;8.63;;;5.63;;
70576;SDS011;58138;43.138;24.702;2022-12-10T10:06:20;6.78;;;4.88;;
70576;SDS011;58138;43.138;24.702;2022-12-10T10:08:47;10.85;;;6.88;;
70576;SDS011;58138;43.138;24.702;2022-12-10T10:11:17;12.25;;;8.73;;
70576;SDS011;58138;43.138;24.702;2022-12-10T10:19:04;15.50;;;7.10;;
70576;SDS011;58138;43.138;24.702;2022-12-10T10:21:50;11.48;;;5.80;;
70576;SDS011;58138;43.138;24.702;2022-12-10T10:24:17;4.72;;;3.85;;
70576;SDS011;58138;43.138;24.702;2022-12-10T10:26:44;10.43;;;6.35;;
70576;SDS011;58138;43.138;24.702;2022-12-10T10:29:14;6.50;;;4.10;;
70576;SDS011;58138;43.138;24.702;2022-12-10T10:31:42;7.40;;;5.40;;
70576;SDS011;58138;43.138;24.702;2022-12-10T10:34:26;7.78;;;4.22;;
70576;SDS011;58138;43.138;24.702;2022-12-10T10:36:58;7.70;;;4.40;;
70576;SDS011;58138;43.138;24.702;2022-12-10T10:39:29;5.35;;;3.33;;
70576;SDS011;58138;43.138;24.702;2022-12-10T10:41:56;10.45;;;3.50;;
70576;SDS011;58138;43.138;24.702;2022-12-10T10:44:25;5.45;;;2.80;;
70576;SDS011;58138;43.138;24.702;2022-12-10T10:46:53;5.50;;;3.33;;
70576;SDS011;58138;43.138;24.702;2022-12-10T10:51:59;4.40;;;2.20;;
70576;SDS011;58138;43.138;24.702;2022-12-10T10:59:45;5.13;;;2.50;;
70576;SDS011;58138;43.138;24.702;2022-12-10T11:04:52;6.40;;;3.30;;
70576;SDS011;58138;43.138;24.702;2022-12-10T11:07:33;6.20;;;4.18;;
70576;SDS011;58138;43.138;24.702;2022-12-10T11:10:04;8.57;;;3.83;;
70576;SDS011;58138;43.138;24.702;2022-12-10T11:12:44;7.55;;;4.05;;
70576;SDS011;58138;43.138;24.702;2022-12-10T11:17:49;5.43;;;4.10;;
70576;SDS011;58138;43.138;24.702;2022-12-10T11:20:21;7.70;;;4.72;;
70576;SDS011;58138;43.138;24.702;2022-12-10T11:23:01;10.20;;;4.95;;
70576;SDS011;58138;43.138;24.702;2022-12-10T11:33:57;7.78;;;5.20;;
70576;SDS011;58138;43.138;24.702;2022-12-10T11:41:54;7.05;;;4.43;;
70576;SDS011;58138;43.138;24.702;2022-12-10T11:49:39;9.63;;;6.10;;
70576;SDS011;58138;43.138;24.702;2022-12-10T11:57:46;10.35;;;5.68;;
70576;SDS011;58138;43.138;24.702;2022-12-10T12:00:23;9.85;;;5.32;;
70576;SDS011;58138;43.138;24.702;2022-12-10T12:05:41;11.30;;;6.13;;
70576;SDS011;58138;43.138;24.702;2022-12-10T12:13:12;12.07;;;7.38;;
70576;SDS011;58138;43.138;24.702;2022-12-10T12:18:26;11.82;;;7.80;;
70576;SDS011;58138;43.138;24.702;2022-12-10T12:20:57;11.75;;;7.57;;
70576;SDS011;58138;43.138;24.702;2022-12-10T12:23:29;14.07;;;7.80;;
70576;SDS011;58138;43.138;24.702;2022-12-10T12:26:00;16.45;;;8.40;;
70576;SDS011;58138;43.138;24.702;2022-12-10T12:28:36;10.18;;;7.60;;
70576;SDS011;58138;43.138;24.702;2022-12-10T12:31:12;10.88;;;7.90;;
70576;SDS011;58138;43.138;24.702;2022-12-10T12:33:50;10.73;;;6.68;;
70576;SDS011;58138;43.138;24.702;2022-12-10T12:36:22;10.18;;;6.85;;
70576;SDS011;58138;43.138;24.702;2022-12-10T12:39:00;10.10;;;7.05;;
70576;SDS011;58138;43.138;24.702;2022-12-10T12:41:53;9.63;;;6.72;;
70576;SDS011;58138;43.138;24.702;2022-12-10T12:47:02;11.27;;;8.30;;
70576;SDS011;58138;43.138;24.702;2022-12-10T12:49:35;13.02;;;8.43;;
70576;SDS011;58138;43.138;24.702;2022-12-10T12:52:16;13.68;;;7.47;;
70576;SDS011;58138;43.138;24.702;2022-12-10T12:55:11;15.80;;;10.35;;
70576;SDS011;58138;43.138;24.702;2022-12-10T12:57:46;11.50;;;8.90;;
70576;SDS011;58138;43.138;24.702;2022-12-10T13:00:15;15.52;;;10.00;;
70576;SDS011;58138;43.138;24.702;2022-12-10T13:03:00;13.10;;;9.25;;
70576;SDS011;58138;43.138;24.702;2022-12-10T13:05:36;11.75;;;9.82;;
70576;SDS011;58138;43.138;24.702;2022-12-10T13:11:00;20.10;;;11.20;;
70576;SDS011;58138;43.138;24.702;2022-12-10T13:14:02;17.38;;;11.45;;
70576;SDS011;58138;43.138;24.702;2022-12-10T13:27:03;21.95;;;15.63;;
70576;SDS011;58138;43.138;24.702;2022-12-10T13:40:15;20.45;;;14.63;;
70576;SDS011;58138;43.138;24.702;2022-12-10T13:42:50;26.08;;;16.55;;
70576;SDS011;58138;43.138;24.702;2022-12-10T13:45:40;21.15;;;16.73;;
70576;SDS011;58138;43.138;24.702;2022-12-10T13:51:29;34.97;;;22.00;;
70576;SDS011;58138;43.138;24.702;2022-12-10T13:53:54;35.92;;;23.67;;
70576;SDS011;58138;43.138;24.702;2022-12-10T13:56:40;41.83;;;26.20;;
70576;SDS011;58138;43.138;24.702;2022-12-10T13:59:14;41.47;;;26.57;;
70576;SDS011;58138;43.138;24.702;2022-12-10T14:02:21;41.47;;;27.25;;
70576;SDS011;58138;43.138;24.702;2022-12-10T14:07:27;43.03;;;28.73;;
70576;SDS011;58138;43.138;24.702;2022-12-10T14:09:53;40.03;;;24.83;;
70576;SDS011;58138;43.138;24.702;2022-12-10T14:12:29;51.13;;;29.40;;
70576;SDS011;58138;43.138;24.702;2022-12-10T14:15:22;59.63;;;33.03;;
70576;SDS011;58138;43.138;24.702;2022-12-10T14:18:11;58.17;;;33.67;;
70576;SDS011;58138;43.138;24.702;2022-12-10T14:20:36;54.55;;;31.45;;
70576;SDS011;58138;43.138;24.702;2022-12-10T14:23:19;53.92;;;34.28;;
70576;SDS011;58138;43.138;24.702;2022-12-10T14:25:58;59.03;;;39.75;;
70576;SDS011;58138;43.138;24.702;2022-12-10T14:28:24;62.00;;;40.47;;
70576;SDS011;58138;43.138;24.702;2022-12-10T14:30:49;61.78;;;42.15;;
70576;SDS011;58138;43.138;24.702;2022-12-10T14:33:17;77.10;;;54.78;;
70576;SDS011;58138;43.138;24.702;2022-12-10T14:35:49;91.85;;;62.88;;
70576;SDS011;58138;43.138;24.702;2022-12-10T14:38:36;71.43;;;50.70;;
70576;SDS011;58138;43.138;24.702;2022-12-10T14:41:02;87.15;;;59.55;;
70576;SDS011;58138;43.138;24.702;2022-12-10T14:43:38;81.80;;;54.50;;
70576;SDS011;58138;43.138;24.702;2022-12-10T14:46:05;91.53;;;61.80;;
70576;SDS011;58138;43.138;24.702;2022-12-10T14:48:39;93.88;;;60.63;;
70576;SDS011;58138;43.138;24.702;2022-12-10T14:51:17;87.68;;;58.50;;
70576;SDS011;58138;43.138;24.702;2022-12-10T14:53:45;86.93;;;60.28;;
70576;SDS011;58138;43.138;24.702;2022-12-10T14:56:14;83.40;;;56.28;;
70576;SDS011;58138;43.138;24.702;2022-12-10T14:58:55;91.30;;;60.65;;
70576;SDS011;58138;43.138;24.702;2022-12-10T15:01:42;95.07;;;66.05;;
70576;SDS011;58138;43.138;24.702;2022-12-10T15:04:13;93.68;;;63.33;;
70576;SDS011;58138;43.138;24.702;2022-12-10T15:06:41;78.55;;;55.13;;
70576;SDS011;58138;43.138;24.702;2022-12-10T15:09:41;136.38;;;100.05;;
70576;SDS011;58138;43.138;24.702;2022-12-10T15:11:59;80.07;;;55.08;;
70576;SDS011;58138;43.138;24.702;2022-12-10T15:14:26;90.22;;;59.53;;
70576;SDS011;58138;43.138;24.702;2022-12-10T15:16:52;131.50;;;89.55;;
70576;SDS011;58138;43.138;24.702;2022-12-10T15:19:24;136.70;;;91.28;;
70576;SDS011;58138;43.138;24.702;2022-12-10T15:22:01;127.35;;;89.28;;
70576;SDS011;58138;43.138;24.702;2022-12-10T15:24:53;147.50;;;106.28;;
70576;SDS011;58138;43.138;24.702;2022-12-10T15:27:19;161.02;;;122.07;;
70576;SDS011;58138;43.138;24.702;2022-12-10T15:29:46;114.10;;;86.47;;
70576;SDS011;58138;43.138;24.702;2022-12-10T15:32:19;126.43;;;91.43;;
70576;SDS011;58138;43.138;24.702;2022-12-10T15:34:48;133.95;;;94.85;;
70576;SDS011;58138;43.138;24.702;2022-12-10T15:37:25;123.47;;;92.43;;
70576;SDS011;58138;43.138;24.702;2022-12-10T15:39:53;102.07;;;67.13;;
70576;SDS011;58138;43.138;24.702;2022-12-10T15:42:31;104.90;;;75.10;;
70576;SDS011;58138;43.138;24.702;2022-12-10T15:48:03;99.80;;;73.50;;
70576;SDS011;58138;43.138;24.702;2022-12-10T15:50:36;78.78;;;56.13;;
70576;SDS011;58138;43.138;24.702;2022-12-10T15:53:02;74.40;;;54.78;;
70576;SDS011;58138;43.138;24.702;2022-12-10T15:55:28;68.22;;;48.38;;
70576;SDS011;58138;43.138;24.702;2022-12-10T15:57:53;62.72;;;46.08;;
70576;SDS011;58138;43.138;24.702;2022-12-10T16:00:20;90.35;;;63.95;;
70576;SDS011;58138;43.138;24.702;2022-12-10T16:05:24;73.65;;;54.30;;
70576;SDS011;58138;43.138;24.702;2022-12-10T16:07:58;111.78;;;80.30;;
70576;SDS011;58138;43.138;24.702;2022-12-10T16:10:26;147.02;;;107.30;;
70576;SDS011;58138;43.138;24.702;2022-12-10T16:13:02;85.72;;;62.08;;
70576;SDS011;58138;43.138;24.702;2022-12-10T16:15:30;88.28;;;63.28;;
70576;SDS011;58138;43.138;24.702;2022-12-10T16:18:01;71.35;;;51.80;;
70576;SDS011;58138;43.138;24.702;2022-12-10T16:20:29;69.68;;;46.92;;
70576;SDS011;58138;43.138;24.702;2022-12-10T16:22:56;71.72;;;51.03;;